sensor_id;sensor_type;location;lat;lon;timestamp;P1;durP1;ratioP1;P2;durP2;ratioP2
72586;SDS011;60621;49.576;11.024;2023-04-28T00:00:00;9.25;;;5.28;;
72586;SDS011;60621;49.576;11.024;2023-04-28T00:01:04;10.48;;;5.05;;
72586;SDS011;60621;49.576;11.024;2023-04-28T00:02:06;9.07;;;5.18;;
72586;SDS011;60621;49.576;11.024;2023-04-28T00:03:07;10.23;;;5.80;;
72586;SDS011;60621;49.576;11.024;2023-04-28T00:04:09;8.68;;;5.60;;
72586;SDS011;60621;49.576;11.024;2023-04-28T00:05:11;9.50;;;5.68;;
72586;SDS011;60621;49.576;11.024;2023-04-28T00:06:13;9.68;;;5.85;;
72586;SDS011;60621;49.576;11.024;2023-04-28T00:07:15;8.57;;;5.50;;
72586;SDS011;60621;49.576;11.024;2023-04-28T00:08:16;9.40;;;5.75;;
72586;SDS011;60621;49.576;11.024;2023-04-28T00:09:18;9.20;;;5.70;;
72586;SDS011;60621;49.576;11.024;2023-04-28T00:10:20;9.88;;;5.70;;
72586;SDS011;60621;49.576;11.024;2023-04-28T00:11:21;10.40;;;5.43;;
72586;SDS011;60621;49.576;11.024;2023-04-28T00:12:22;9.18;;;5.38;;
72586;SDS011;60621;49.576;11.024;2023-04-28T00:13:24;8.40;;;5.00;;
72586;SDS011;60621;49.576;11.024;2023-04-28T00:14:25;7.90;;;4.43;;
72586;SDS011;60621;49.576;11.024;2023-04-28T00:15:27;7.72;;;4.80;;
72586;SDS011;60621;49.576;11.024;2023-04-28T00:16:29;7.85;;;4.80;;
72586;SDS011;60621;49.576;11.024;2023-04-28T00:17:30;11.23;;;5.38;;
72586;SDS011;60621;49.576;11.024;2023-04-28T00:18:32;7.05;;;4.30;;
72586;SDS011;60621;49.576;11.024;2023-04-28T00:19:33;8.00;;;4.97;;
72586;SDS011;60621;49.576;11.024;2023-04-28T00:20:35;7.40;;;4.80;;
72586;SDS011;60621;49.576;11.024;2023-04-28T00:21:37;8.90;;;4.97;;
72586;SDS011;60621;49.576;11.024;2023-04-28T00:22:38;10.00;;;4.88;;
72586;SDS011;60621;49.576;11.024;2023-04-28T00:23:40;9.25;;;4.78;;
72586;SDS011;60621;49.576;11.024;2023-04-28T00:24:41;7.97;;;4.72;;
72586;SDS011;60621;49.576;11.024;2023-04-28T00:25:43;8.18;;;5.00;;
72586;SDS011;60621;49.576;11.024;2023-04-28T00:26:44;8.95;;;5.25;;
72586;SDS011;60621;49.576;11.024;2023-04-28T00:27:46;7.78;;;4.57;;
72586;SDS011;60621;49.576;11.024;2023-04-28T00:28:47;7.82;;;4.85;;
72586;SDS011;60621;49.576;11.024;2023-04-28T00:29:49;7.75;;;5.00;;
72586;SDS011;60621;49.576;11.024;2023-04-28T00:30:50;9.25;;;4.45;;
72586;SDS011;60621;49.576;11.024;2023-04-28T00:31:52;10.02;;;5.53;;
72586;SDS011;60621;49.576;11.024;2023-04-28T00:32:53;7.43;;;4.60;;
72586;SDS011;60621;49.576;11.024;2023-04-28T00:33:55;9.30;;;4.47;;
72586;SDS011;60621;49.576;11.024;2023-04-28T00:34:56;7.35;;;4.28;;
72586;SDS011;60621;49.576;11.024;2023-04-28T00:35:58;9.45;;;5.10;;
72586;SDS011;60621;49.576;11.024;2023-04-28T00:37:01;7.45;;;5.03;;
72586;SDS011;60621;49.576;11.024;2023-04-28T00:38:04;8.77;;;4.65;;
72586;SDS011;60621;49.576;11.024;2023-04-28T00:39:05;9.52;;;5.72;;
72586;SDS011;60621;49.576;11.024;2023-04-28T00:40:07;8.40;;;5.18;;
72586;SDS011;60621;49.576;11.024;2023-04-28T00:41:09;9.68;;;5.00;;
72586;SDS011;60621;49.576;11.024;2023-04-28T00:42:11;7.75;;;4.32;;
72586;SDS011;60621;49.576;11.024;2023-04-28T00:43:14;8.05;;;3.95;;
72586;SDS011;60621;49.576;11.024;2023-04-28T00:44:15;6.70;;;3.85;;
72586;SDS011;60621;49.576;11.024;2023-04-28T00:45:17;8.05;;;4.00;;
72586;SDS011;60621;49.576;11.024;2023-04-28T00:46:20;7.95;;;4.10;;
72586;SDS011;60621;49.576;11.024;2023-04-28T00:47:27;7.93;;;4.32;;
72586;SDS011;60621;49.576;11.024;2023-04-28T00:48:28;8.48;;;4.10;;
72586;SDS011;60621;49.576;11.024;2023-04-28T00:49:31;9.25;;;4.07;;
72586;SDS011;60621;49.576;11.024;2023-04-28T00:50:34;8.43;;;4.07;;
72586;SDS011;60621;49.576;11.024;2023-04-28T00:51:36;6.95;;;4.15;;
72586;SDS011;60621;49.576;11.024;2023-04-28T00:52:38;7.40;;;3.95;;
72586;SDS011;60621;49.576;11.024;2023-04-28T00:53:39;8.45;;;3.90;;
72586;SDS011;60621;49.576;11.024;2023-04-28T00:54:41;6.60;;;3.92;;
72586;SDS011;60621;49.576;11.024;2023-04-28T00:55:43;7.18;;;3.88;;
72586;SDS011;60621;49.576;11.024;2023-04-28T00:56:46;6.97;;;3.70;;
72586;SDS011;60621;49.576;11.024;2023-04-28T00:57:48;7.57;;;3.65;;
72586;SDS011;60621;49.576;11.024;2023-04-28T00:58:51;8.10;;;3.85;;
72586;SDS011;60621;49.576;11.024;2023-04-28T00:59:53;6.93;;;3.50;;
72586;SDS011;60621;49.576;11.024;2023-04-28T01:01:04;9.50;;;4.20;;
72586;SDS011;60621;49.576;11.024;2023-04-28T01:02:07;7.45;;;4.32;;
72586;SDS011;60621;49.576;11.024;2023-04-28T01:03:08;9.20;;;4.22;;
72586;SDS011;60621;49.576;11.024;2023-04-28T01:04:11;6.55;;;3.90;;
72586;SDS011;60621;49.576;11.024;2023-04-28T01:05:13;8.07;;;3.95;;
72586;SDS011;60621;49.576;11.024;2023-04-28T01:06:15;7.13;;;4.43;;
72586;SDS011;60621;49.576;11.024;2023-04-28T01:07:18;7.70;;;3.53;;
72586;SDS011;60621;49.576;11.024;2023-04-28T01:08:23;6.20;;;3.50;;
72586;SDS011;60621;49.576;11.024;2023-04-28T01:09:28;7.30;;;3.95;;
72586;SDS011;60621;49.576;11.024;2023-04-28T01:10:29;7.18;;;3.33;;
72586;SDS011;60621;49.576;11.024;2023-04-28T01:11:31;6.68;;;3.60;;
72586;SDS011;60621;49.576;11.024;2023-04-28T01:12:33;7.40;;;3.85;;
72586;SDS011;60621;49.576;11.024;2023-04-28T01:13:34;6.57;;;3.28;;
72586;SDS011;60621;49.576;11.024;2023-04-28T01:14:36;6.28;;;3.83;;
72586;SDS011;60621;49.576;11.024;2023-04-28T01:15:37;8.20;;;3.58;;
72586;SDS011;60621;49.576;11.024;2023-04-28T01:16:39;7.22;;;3.85;;
72586;SDS011;60621;49.576;11.024;2023-04-28T01:17:41;7.78;;;3.72;;
72586;SDS011;60621;49.576;11.024;2023-04-28T01:18:45;7.43;;;4.28;;
72586;SDS011;60621;49.576;11.024;2023-04-28T01:19:48;7.20;;;3.63;;
72586;SDS011;60621;49.576;11.024;2023-04-28T01:20:49;7.25;;;3.55;;
72586;SDS011;60621;49.576;11.024;2023-04-28T01:21:52;7.95;;;4.00;;
72586;SDS011;60621;49.576;11.024;2023-04-28T01:22:53;8.63;;;3.90;;
72586;SDS011;60621;49.576;11.024;2023-04-28T01:23:58;7.32;;;3.97;;
72586;SDS011;60621;49.576;11.024;2023-04-28T01:25:00;6.78;;;3.85;;
72586;SDS011;60621;49.576;11.024;2023-04-28T01:26:03;8.13;;;3.83;;
72586;SDS011;60621;49.576;11.024;2023-04-28T01:27:05;7.88;;;3.60;;
72586;SDS011;60621;49.576;11.024;2023-04-28T01:28:07;6.53;;;3.70;;
72586;SDS011;60621;49.576;11.024;2023-04-28T01:29:09;7.60;;;3.95;;
72586;SDS011;60621;49.576;11.024;2023-04-28T01:30:11;8.15;;;3.80;;
72586;SDS011;60621;49.576;11.024;2023-04-28T01:31:12;7.45;;;3.40;;
72586;SDS011;60621;49.576;11.024;2023-04-28T01:32:14;8.30;;;4.07;;
72586;SDS011;60621;49.576;11.024;2023-04-28T01:33:15;6.70;;;3.72;;
72586;SDS011;60621;49.576;11.024;2023-04-28T01:34:17;6.93;;;3.70;;
72586;SDS011;60621;49.576;11.024;2023-04-28T01:35:18;7.40;;;3.75;;
72586;SDS011;60621;49.576;11.024;2023-04-28T01:36:20;6.85;;;3.83;;
72586;SDS011;60621;49.576;11.024;2023-04-28T01:37:23;7.45;;;3.92;;
72586;SDS011;60621;49.576;11.024;2023-04-28T01:38:25;7.40;;;3.80;;
72586;SDS011;60621;49.576;11.024;2023-04-28T01:39:27;7.32;;;3.40;;
72586;SDS011;60621;49.576;11.024;2023-04-28T01:40:28;6.68;;;3.50;;
72586;SDS011;60621;49.576;11.024;2023-04-28T01:41:30;6.45;;;3.45;;
72586;SDS011;60621;49.576;11.024;2023-04-28T01:42:34;7.50;;;3.72;;
72586;SDS011;60621;49.576;11.024;2023-04-28T01:43:36;7.47;;;4.00;;
72586;SDS011;60621;49.576;11.024;2023-04-28T01:44:37;7.18;;;3.42;;
72586;SDS011;60621;49.576;11.024;2023-04-28T01:45:39;6.88;;;3.80;;
72586;SDS011;60621;49.576;11.024;2023-04-28T01:46:40;7.60;;;3.53;;
72586;SDS011;60621;49.576;11.024;2023-04-28T01:47:42;5.90;;;3.70;;
72586;SDS011;60621;49.576;11.024;2023-04-28T01:48:43;8.35;;;3.45;;
72586;SDS011;60621;49.576;11.024;2023-04-28T01:49:45;7.38;;;3.92;;
72586;SDS011;60621;49.576;11.024;2023-04-28T01:51:50;8.25;;;3.40;;
72586;SDS011;60621;49.576;11.024;2023-04-28T01:52:51;6.13;;;3.58;;
72586;SDS011;60621;49.576;11.024;2023-04-28T01:53:53;6.32;;;3.40;;
72586;SDS011;60621;49.576;11.024;2023-04-28T01:54:54;7.10;;;3.63;;
72586;SDS011;60621;49.576;11.024;2023-04-28T01:55:56;6.93;;;3.58;;
72586;SDS011;60621;49.576;11.024;2023-04-28T01:56:59;7.05;;;3.83;;
72586;SDS011;60621;49.576;11.024;2023-04-28T01:58:00;8.45;;;3.80;;
72586;SDS011;60621;49.576;11.024;2023-04-28T01:59:02;7.82;;;3.60;;
72586;SDS011;60621;49.576;11.024;2023-04-28T02:00:03;7.07;;;3.42;;
72586;SDS011;60621;49.576;11.024;2023-04-28T02:01:05;8.32;;;4.10;;
72586;SDS011;60621;49.576;11.024;2023-04-28T02:02:07;9.48;;;3.90;;
72586;SDS011;60621;49.576;11.024;2023-04-28T02:03:09;6.60;;;3.58;;
72586;SDS011;60621;49.576;11.024;2023-04-28T02:04:11;7.75;;;3.65;;
72586;SDS011;60621;49.576;11.024;2023-04-28T02:05:13;8.02;;;3.72;;
72586;SDS011;60621;49.576;11.024;2023-04-28T02:06:14;7.95;;;3.72;;
72586;SDS011;60621;49.576;11.024;2023-04-28T02:07:16;7.47;;;3.65;;
72586;SDS011;60621;49.576;11.024;2023-04-28T02:08:17;8.77;;;3.75;;
72586;SDS011;60621;49.576;11.024;2023-04-28T02:09:19;6.82;;;3.42;;
72586;SDS011;60621;49.576;11.024;2023-04-28T02:10:20;7.28;;;3.75;;
72586;SDS011;60621;49.576;11.024;2023-04-28T02:11:22;7.53;;;3.65;;
72586;SDS011;60621;49.576;11.024;2023-04-28T02:12:24;7.25;;;3.55;;
72586;SDS011;60621;49.576;11.024;2023-04-28T02:13:26;7.05;;;3.80;;
72586;SDS011;60621;49.576;11.024;2023-04-28T02:14:27;7.90;;;3.83;;
72586;SDS011;60621;49.576;11.024;2023-04-28T02:15:29;8.30;;;3.85;;
72586;SDS011;60621;49.576;11.024;2023-04-28T02:16:31;6.72;;;3.65;;
72586;SDS011;60621;49.576;11.024;2023-04-28T02:17:34;6.60;;;3.60;;
72586;SDS011;60621;49.576;11.024;2023-04-28T02:18:36;7.53;;;3.60;;
72586;SDS011;60621;49.576;11.024;2023-04-28T02:19:37;5.85;;;3.55;;
72586;SDS011;60621;49.576;11.024;2023-04-28T02:20:39;7.40;;;3.85;;
72586;SDS011;60621;49.576;11.024;2023-04-28T02:21:41;7.45;;;4.05;;
72586;SDS011;60621;49.576;11.024;2023-04-28T02:22:43;7.60;;;3.80;;
72586;SDS011;60621;49.576;11.024;2023-04-28T02:23:44;6.85;;;3.85;;
72586;SDS011;60621;49.576;11.024;2023-04-28T02:24:46;8.00;;;3.80;;
72586;SDS011;60621;49.576;11.024;2023-04-28T02:25:48;7.82;;;3.90;;
72586;SDS011;60621;49.576;11.024;2023-04-28T02:26:49;7.28;;;3.80;;
72586;SDS011;60621;49.576;11.024;2023-04-28T02:27:51;7.63;;;3.50;;
72586;SDS011;60621;49.576;11.024;2023-04-28T02:28:53;6.75;;;3.70;;
72586;SDS011;60621;49.576;11.024;2023-04-28T02:29:54;6.28;;;3.40;;
72586;SDS011;60621;49.576;11.024;2023-04-28T02:31:04;10.32;;;3.92;;
72586;SDS011;60621;49.576;11.024;2023-04-28T02:32:10;7.15;;;3.85;;
72586;SDS011;60621;49.576;11.024;2023-04-28T02:33:12;7.18;;;3.53;;
72586;SDS011;60621;49.576;11.024;2023-04-28T02:34:13;7.40;;;3.60;;
72586;SDS011;60621;49.576;11.024;2023-04-28T02:35:15;7.88;;;3.70;;
72586;SDS011;60621;49.576;11.024;2023-04-28T02:36:20;7.53;;;3.60;;
72586;SDS011;60621;49.576;11.024;2023-04-28T02:37:22;7.47;;;3.90;;
72586;SDS011;60621;49.576;11.024;2023-04-28T02:38:23;7.97;;;3.97;;
72586;SDS011;60621;49.576;11.024;2023-04-28T02:39:25;7.75;;;3.90;;
72586;SDS011;60621;49.576;11.024;2023-04-28T02:40:27;6.88;;;3.67;;
72586;SDS011;60621;49.576;11.024;2023-04-28T02:41:29;8.52;;;3.85;;
72586;SDS011;60621;49.576;11.024;2023-04-28T02:42:31;7.32;;;3.65;;
72586;SDS011;60621;49.576;11.024;2023-04-28T02:43:33;7.13;;;3.60;;
72586;SDS011;60621;49.576;11.024;2023-04-28T02:45:37;8.88;;;3.35;;
72586;SDS011;60621;49.576;11.024;2023-04-28T02:46:40;6.80;;;3.53;;
72586;SDS011;60621;49.576;11.024;2023-04-28T02:47:42;9.20;;;3.75;;
72586;SDS011;60621;49.576;11.024;2023-04-28T02:48:43;6.22;;;3.20;;
72586;SDS011;60621;49.576;11.024;2023-04-28T02:49:45;6.30;;;3.33;;
72586;SDS011;60621;49.576;11.024;2023-04-28T02:50:46;8.13;;;3.63;;
72586;SDS011;60621;49.576;11.024;2023-04-28T02:51:48;7.78;;;3.97;;
72586;SDS011;60621;49.576;11.024;2023-04-28T02:52:50;7.78;;;3.55;;
72586;SDS011;60621;49.576;11.024;2023-04-28T02:53:51;6.30;;;3.60;;
72586;SDS011;60621;49.576;11.024;2023-04-28T02:54:53;6.75;;;3.60;;
72586;SDS011;60621;49.576;11.024;2023-04-28T02:55:57;9.02;;;3.67;;
72586;SDS011;60621;49.576;11.024;2023-04-28T02:56:59;7.75;;;3.83;;
72586;SDS011;60621;49.576;11.024;2023-04-28T02:58:01;6.43;;;3.30;;
72586;SDS011;60621;49.576;11.024;2023-04-28T02:59:06;7.47;;;3.83;;
72586;SDS011;60621;49.576;11.024;2023-04-28T03:00:08;7.95;;;3.50;;
72586;SDS011;60621;49.576;11.024;2023-04-28T03:01:10;7.57;;;3.78;;
72586;SDS011;60621;49.576;11.024;2023-04-28T03:02:12;7.55;;;3.67;;
72586;SDS011;60621;49.576;11.024;2023-04-28T03:03:13;7.20;;;3.80;;
72586;SDS011;60621;49.576;11.024;2023-04-28T03:04:16;7.80;;;3.40;;
72586;SDS011;60621;49.576;11.024;2023-04-28T03:05:18;7.78;;;3.97;;
72586;SDS011;60621;49.576;11.024;2023-04-28T03:06:20;8.20;;;4.00;;
72586;SDS011;60621;49.576;11.024;2023-04-28T03:07:22;7.47;;;3.42;;
72586;SDS011;60621;49.576;11.024;2023-04-28T03:08:23;8.35;;;4.00;;
72586;SDS011;60621;49.576;11.024;2023-04-28T03:09:25;5.35;;;3.50;;
72586;SDS011;60621;49.576;11.024;2023-04-28T03:10:27;8.52;;;3.78;;
72586;SDS011;60621;49.576;11.024;2023-04-28T03:11:28;7.00;;;3.40;;
72586;SDS011;60621;49.576;11.024;2023-04-28T03:12:30;8.88;;;3.65;;
72586;SDS011;60621;49.576;11.024;2023-04-28T03:13:31;8.23;;;3.67;;
72586;SDS011;60621;49.576;11.024;2023-04-28T03:14:33;8.70;;;3.50;;
72586;SDS011;60621;49.576;11.024;2023-04-28T03:15:35;7.53;;;3.90;;
72586;SDS011;60621;49.576;11.024;2023-04-28T03:16:37;8.40;;;3.72;;
72586;SDS011;60621;49.576;11.024;2023-04-28T03:17:38;6.68;;;3.45;;
72586;SDS011;60621;49.576;11.024;2023-04-28T03:18:42;6.38;;;3.35;;
72586;SDS011;60621;49.576;11.024;2023-04-28T03:19:44;7.82;;;3.97;;
72586;SDS011;60621;49.576;11.024;2023-04-28T03:20:45;7.95;;;3.88;;
72586;SDS011;60621;49.576;11.024;2023-04-28T03:21:47;7.25;;;4.00;;
72586;SDS011;60621;49.576;11.024;2023-04-28T03:22:48;6.78;;;3.83;;
72586;SDS011;60621;49.576;11.024;2023-04-28T03:23:50;9.23;;;4.00;;
72586;SDS011;60621;49.576;11.024;2023-04-28T03:24:52;7.40;;;3.58;;
72586;SDS011;60621;49.576;11.024;2023-04-28T03:25:53;8.18;;;3.83;;
72586;SDS011;60621;49.576;11.024;2023-04-28T03:26:55;6.05;;;3.42;;
72586;SDS011;60621;49.576;11.024;2023-04-28T03:27:57;8.50;;;3.70;;
72586;SDS011;60621;49.576;11.024;2023-04-28T03:28:58;9.27;;;3.88;;
72586;SDS011;60621;49.576;11.024;2023-04-28T03:30:00;7.38;;;3.65;;
72586;SDS011;60621;49.576;11.024;2023-04-28T03:31:02;6.28;;;3.78;;
72586;SDS011;60621;49.576;11.024;2023-04-28T03:32:04;9.38;;;3.80;;
72586;SDS011;60621;49.576;11.024;2023-04-28T03:33:06;6.80;;;3.47;;
72586;SDS011;60621;49.576;11.024;2023-04-28T03:34:07;6.15;;;3.30;;
72586;SDS011;60621;49.576;11.024;2023-04-28T03:35:09;6.78;;;3.42;;
72586;SDS011;60621;49.576;11.024;2023-04-28T03:36:11;7.57;;;3.72;;
72586;SDS011;60621;49.576;11.024;2023-04-28T03:37:13;7.07;;;3.35;;
72586;SDS011;60621;49.576;11.024;2023-04-28T03:38:14;7.43;;;3.72;;
72586;SDS011;60621;49.576;11.024;2023-04-28T03:39:16;9.70;;;4.28;;
72586;SDS011;60621;49.576;11.024;2023-04-28T03:40:18;8.88;;;4.50;;
72586;SDS011;60621;49.576;11.024;2023-04-28T03:41:20;8.80;;;4.22;;
72586;SDS011;60621;49.576;11.024;2023-04-28T03:42:21;7.07;;;3.83;;
72586;SDS011;60621;49.576;11.024;2023-04-28T03:43:23;7.55;;;3.70;;
72586;SDS011;60621;49.576;11.024;2023-04-28T03:44:24;8.90;;;3.63;;
72586;SDS011;60621;49.576;11.024;2023-04-28T03:45:26;7.28;;;3.70;;
72586;SDS011;60621;49.576;11.024;2023-04-28T03:46:28;6.85;;;3.88;;
72586;SDS011;60621;49.576;11.024;2023-04-28T03:47:30;7.03;;;3.70;;
72586;SDS011;60621;49.576;11.024;2023-04-28T03:48:31;8.00;;;3.60;;
72586;SDS011;60621;49.576;11.024;2023-04-28T03:49:33;10.35;;;3.42;;
72586;SDS011;60621;49.576;11.024;2023-04-28T03:50:34;6.90;;;3.30;;
72586;SDS011;60621;49.576;11.024;2023-04-28T03:51:36;7.45;;;3.63;;
72586;SDS011;60621;49.576;11.024;2023-04-28T03:52:38;6.18;;;3.45;;
72586;SDS011;60621;49.576;11.024;2023-04-28T03:53:39;8.23;;;4.00;;
72586;SDS011;60621;49.576;11.024;2023-04-28T03:54:41;7.53;;;3.50;;
72586;SDS011;60621;49.576;11.024;2023-04-28T03:55:43;7.63;;;3.58;;
72586;SDS011;60621;49.576;11.024;2023-04-28T03:56:45;7.20;;;3.72;;
72586;SDS011;60621;49.576;11.024;2023-04-28T03:57:46;8.75;;;3.63;;
72586;SDS011;60621;49.576;11.024;2023-04-28T03:58:48;6.70;;;3.75;;
72586;SDS011;60621;49.576;11.024;2023-04-28T03:59:50;7.00;;;4.03;;
72586;SDS011;60621;49.576;11.024;2023-04-28T04:00:52;5.60;;;3.22;;
72586;SDS011;60621;49.576;11.024;2023-04-28T04:01:54;6.65;;;3.45;;
72586;SDS011;60621;49.576;11.024;2023-04-28T04:02:56;7.68;;;3.50;;
72586;SDS011;60621;49.576;11.024;2023-04-28T04:03:58;8.43;;;3.95;;
72586;SDS011;60621;49.576;11.024;2023-04-28T04:05:00;7.72;;;3.72;;
72586;SDS011;60621;49.576;11.024;2023-04-28T04:06:02;9.07;;;3.50;;
72586;SDS011;60621;49.576;11.024;2023-04-28T04:07:04;6.35;;;3.20;;
72586;SDS011;60621;49.576;11.024;2023-04-28T04:08:06;6.03;;;3.33;;
72586;SDS011;60621;49.576;11.024;2023-04-28T04:09:08;6.80;;;3.53;;
72586;SDS011;60621;49.576;11.024;2023-04-28T04:10:12;6.75;;;3.45;;
72586;SDS011;60621;49.576;11.024;2023-04-28T04:11:13;6.68;;;3.47;;
72586;SDS011;60621;49.576;11.024;2023-04-28T04:12:15;6.13;;;3.60;;
72586;SDS011;60621;49.576;11.024;2023-04-28T04:13:17;7.22;;;3.78;;
72586;SDS011;60621;49.576;11.024;2023-04-28T04:14:18;5.97;;;3.40;;
72586;SDS011;60621;49.576;11.024;2023-04-28T04:15:20;6.53;;;3.38;;
72586;SDS011;60621;49.576;11.024;2023-04-28T04:16:21;7.40;;;3.47;;
72586;SDS011;60621;49.576;11.024;2023-04-28T04:17:23;6.78;;;3.78;;
72586;SDS011;60621;49.576;11.024;2023-04-28T04:18:25;7.53;;;3.33;;
72586;SDS011;60621;49.576;11.024;2023-04-28T04:19:27;6.43;;;3.60;;
72586;SDS011;60621;49.576;11.024;2023-04-28T04:20:29;6.20;;;3.30;;
72586;SDS011;60621;49.576;11.024;2023-04-28T04:21:30;7.65;;;3.75;;
72586;SDS011;60621;49.576;11.024;2023-04-28T04:22:32;6.03;;;3.00;;
72586;SDS011;60621;49.576;11.024;2023-04-28T04:23:33;6.53;;;3.17;;
72586;SDS011;60621;49.576;11.024;2023-04-28T04:24:35;7.80;;;3.72;;
72586;SDS011;60621;49.576;11.024;2023-04-28T04:25:37;5.95;;;2.95;;
72586;SDS011;60621;49.576;11.024;2023-04-28T04:26:38;5.63;;;3.58;;
72586;SDS011;60621;49.576;11.024;2023-04-28T04:27:40;6.10;;;3.28;;
72586;SDS011;60621;49.576;11.024;2023-04-28T04:28:42;6.60;;;3.50;;
72586;SDS011;60621;49.576;11.024;2023-04-28T04:29:43;7.13;;;3.80;;
72586;SDS011;60621;49.576;11.024;2023-04-28T04:30:45;6.25;;;3.47;;
72586;SDS011;60621;49.576;11.024;2023-04-28T04:31:46;6.97;;;3.47;;
72586;SDS011;60621;49.576;11.024;2023-04-28T04:33:51;9.75;;;3.83;;
72586;SDS011;60621;49.576;11.024;2023-04-28T04:34:53;6.25;;;3.53;;
72586;SDS011;60621;49.576;11.024;2023-04-28T04:35:58;8.10;;;3.55;;
72586;SDS011;60621;49.576;11.024;2023-04-28T04:37:00;7.50;;;3.45;;
72586;SDS011;60621;49.576;11.024;2023-04-28T04:38:02;8.52;;;3.53;;
72586;SDS011;60621;49.576;11.024;2023-04-28T04:39:03;7.28;;;3.67;;
72586;SDS011;60621;49.576;11.024;2023-04-28T04:40:05;7.10;;;3.75;;
72586;SDS011;60621;49.576;11.024;2023-04-28T04:41:07;8.30;;;3.38;;
72586;SDS011;60621;49.576;11.024;2023-04-28T04:42:09;7.07;;;4.18;;
72586;SDS011;60621;49.576;11.024;2023-04-28T04:43:25;8.98;;;3.83;;
72586;SDS011;60621;49.576;11.024;2023-04-28T04:44:26;6.57;;;3.70;;
72586;SDS011;60621;49.576;11.024;2023-04-28T04:45:29;6.43;;;3.70;;
72586;SDS011;60621;49.576;11.024;2023-04-28T04:46:33;7.68;;;4.22;;
72586;SDS011;60621;49.576;11.024;2023-04-28T04:47:35;7.47;;;4.20;;
72586;SDS011;60621;49.576;11.024;2023-04-28T04:48:37;8.02;;;4.30;;
72586;SDS011;60621;49.576;11.024;2023-04-28T04:49:38;9.65;;;4.15;;
72586;SDS011;60621;49.576;11.024;2023-04-28T04:50:41;8.43;;;4.13;;
72586;SDS011;60621;49.576;11.024;2023-04-28T04:51:43;7.97;;;4.32;;
72586;SDS011;60621;49.576;11.024;2023-04-28T04:52:45;7.28;;;3.83;;
72586;SDS011;60621;49.576;11.024;2023-04-28T04:53:47;8.30;;;3.88;;
72586;SDS011;60621;49.576;11.024;2023-04-28T04:54:48;6.82;;;3.72;;
72586;SDS011;60621;49.576;11.024;2023-04-28T04:55:50;8.20;;;3.75;;
72586;SDS011;60621;49.576;11.024;2023-04-28T04:56:51;8.68;;;4.07;;
72586;SDS011;60621;49.576;11.024;2023-04-28T04:57:53;9.05;;;4.00;;
72586;SDS011;60621;49.576;11.024;2023-04-28T04:58:55;6.72;;;3.67;;
72586;SDS011;60621;49.576;11.024;2023-04-28T04:59:56;7.43;;;3.47;;
72586;SDS011;60621;49.576;11.024;2023-04-28T05:00:58;6.97;;;4.07;;
72586;SDS011;60621;49.576;11.024;2023-04-28T05:02:00;7.38;;;3.65;;
72586;SDS011;60621;49.576;11.024;2023-04-28T05:03:02;6.32;;;3.88;;
72586;SDS011;60621;49.576;11.024;2023-04-28T05:04:06;6.60;;;3.47;;
72586;SDS011;60621;49.576;11.024;2023-04-28T05:05:09;6.70;;;3.85;;
72586;SDS011;60621;49.576;11.024;2023-04-28T05:06:22;7.95;;;3.75;;
72586;SDS011;60621;49.576;11.024;2023-04-28T05:07:24;7.28;;;3.78;;
72586;SDS011;60621;49.576;11.024;2023-04-28T05:08:26;8.02;;;4.13;;
72586;SDS011;60621;49.576;11.024;2023-04-28T05:09:28;8.63;;;3.92;;
72586;SDS011;60621;49.576;11.024;2023-04-28T05:10:31;6.82;;;3.78;;
72586;SDS011;60621;49.576;11.024;2023-04-28T05:11:33;8.13;;;3.90;;
72586;SDS011;60621;49.576;11.024;2023-04-28T05:12:34;9.15;;;4.38;;
72586;SDS011;60621;49.576;11.024;2023-04-28T05:13:36;7.03;;;3.67;;
72586;SDS011;60621;49.576;11.024;2023-04-28T05:14:37;8.45;;;4.30;;
72586;SDS011;60621;49.576;11.024;2023-04-28T05:15:39;8.02;;;4.22;;
72586;SDS011;60621;49.576;11.024;2023-04-28T05:16:41;8.23;;;3.95;;
72586;SDS011;60621;49.576;11.024;2023-04-28T05:17:43;7.22;;;3.80;;
72586;SDS011;60621;49.576;11.024;2023-04-28T05:18:44;8.50;;;4.25;;
72586;SDS011;60621;49.576;11.024;2023-04-28T05:19:46;7.53;;;4.13;;
72586;SDS011;60621;49.576;11.024;2023-04-28T05:20:48;6.90;;;3.85;;
72586;SDS011;60621;49.576;11.024;2023-04-28T05:21:49;9.30;;;3.95;;
72586;SDS011;60621;49.576;11.024;2023-04-28T05:22:54;7.80;;;3.78;;
72586;SDS011;60621;49.576;11.024;2023-04-28T05:23:55;11.38;;;4.00;;
72586;SDS011;60621;49.576;11.024;2023-04-28T05:24:57;6.85;;;3.30;;
72586;SDS011;60621;49.576;11.024;2023-04-28T05:25:59;9.98;;;4.15;;
72586;SDS011;60621;49.576;11.024;2023-04-28T05:27:01;7.82;;;4.22;;
72586;SDS011;60621;49.576;11.024;2023-04-28T05:28:02;7.75;;;3.85;;
72586;SDS011;60621;49.576;11.024;2023-04-28T05:29:07;8.18;;;4.22;;
72586;SDS011;60621;49.576;11.024;2023-04-28T05:30:09;8.15;;;4.00;;
72586;SDS011;60621;49.576;11.024;2023-04-28T05:31:11;9.23;;;4.03;;
72586;SDS011;60621;49.576;11.024;2023-04-28T05:32:12;7.70;;;3.92;;
72586;SDS011;60621;49.576;11.024;2023-04-28T05:33:14;7.53;;;3.92;;
72586;SDS011;60621;49.576;11.024;2023-04-28T05:34:16;8.43;;;4.13;;
72586;SDS011;60621;49.576;11.024;2023-04-28T05:35:18;6.22;;;4.03;;
72586;SDS011;60621;49.576;11.024;2023-04-28T05:36:20;6.30;;;3.72;;
72586;SDS011;60621;49.576;11.024;2023-04-28T05:37:22;8.38;;;3.95;;
72586;SDS011;60621;49.576;11.024;2023-04-28T05:38:24;8.30;;;4.40;;
72586;SDS011;60621;49.576;11.024;2023-04-28T05:39:26;8.02;;;3.85;;
72586;SDS011;60621;49.576;11.024;2023-04-28T05:40:28;7.95;;;4.60;;
72586;SDS011;60621;49.576;11.024;2023-04-28T05:41:29;8.50;;;4.50;;
72586;SDS011;60621;49.576;11.024;2023-04-28T05:42:31;6.80;;;4.38;;
72586;SDS011;60621;49.576;11.024;2023-04-28T05:43:32;10.27;;;4.30;;
72586;SDS011;60621;49.576;11.024;2023-04-28T05:44:34;9.77;;;4.35;;
72586;SDS011;60621;49.576;11.024;2023-04-28T05:45:38;8.77;;;4.53;;
72586;SDS011;60621;49.576;11.024;2023-04-28T05:46:40;8.73;;;4.30;;
72586;SDS011;60621;49.576;11.024;2023-04-28T05:47:41;8.13;;;4.40;;
72586;SDS011;60621;49.576;11.024;2023-04-28T05:48:44;8.70;;;4.32;;
72586;SDS011;60621;49.576;11.024;2023-04-28T05:49:46;8.98;;;4.60;;
72586;SDS011;60621;49.576;11.024;2023-04-28T05:50:47;7.65;;;4.00;;
72586;SDS011;60621;49.576;11.024;2023-04-28T05:51:49;8.57;;;4.20;;
72586;SDS011;60621;49.576;11.024;2023-04-28T05:52:51;8.18;;;4.57;;
72586;SDS011;60621;49.576;11.024;2023-04-28T05:53:54;8.15;;;4.25;;
72586;SDS011;60621;49.576;11.024;2023-04-28T05:54:55;7.38;;;4.25;;
72586;SDS011;60621;49.576;11.024;2023-04-28T05:55:57;9.57;;;4.18;;
72586;SDS011;60621;49.576;11.024;2023-04-28T05:56:58;8.43;;;4.28;;
72586;SDS011;60621;49.576;11.024;2023-04-28T05:59:03;6.95;;;4.00;;
72586;SDS011;60621;49.576;11.024;2023-04-28T06:00:05;8.00;;;4.40;;
72586;SDS011;60621;49.576;11.024;2023-04-28T06:01:08;8.35;;;4.60;;
72586;SDS011;60621;49.576;11.024;2023-04-28T06:02:10;8.73;;;4.18;;
72586;SDS011;60621;49.576;11.024;2023-04-28T06:03:12;7.50;;;4.10;;
72586;SDS011;60621;49.576;11.024;2023-04-28T06:04:18;8.88;;;4.03;;
72586;SDS011;60621;49.576;11.024;2023-04-28T06:05:20;7.93;;;4.20;;
72586;SDS011;60621;49.576;11.024;2023-04-28T06:06:22;8.52;;;4.20;;
72586;SDS011;60621;49.576;11.024;2023-04-28T06:07:23;11.15;;;4.60;;
72586;SDS011;60621;49.576;11.024;2023-04-28T06:08:25;8.48;;;4.20;;
72586;SDS011;60621;49.576;11.024;2023-04-28T06:09:27;7.63;;;3.97;;
72586;SDS011;60621;49.576;11.024;2023-04-28T06:10:30;6.78;;;3.60;;
72586;SDS011;60621;49.576;11.024;2023-04-28T06:11:31;7.50;;;4.45;;